Time;durP1;ratioP1;P1;durP2;ratioP2;P2;SDS_P1;SDS_P2;PMS_P1;PMS_P2;Temp;Humidity;BMP_temperature;BMP_pressure;BME280_temperature;BME280_humidity;BME280_pressure;Samples;Min_cycle;Max_cycle;Signal;HPM_P1;HPM_P2
2022/06/26 00:00:40;;;;;;;4.55;3.05;;;13.20;99.90;;;;;;5015724;28;20041;-69
2022/06/26 00:03:07;;;;;;;5.72;2.80;;;13.20;99.90;;;;;;5014566;28;20478;-69
2022/06/26 00:05:35;;;;;;;5.85;2.97;;;13.30;99.90;;;;;;5016578;28;20037;-69
2022/06/26 00:08:03;;;;;;;5.82;3.03;;;13.50;99.90;;;;;;5015434;28;20022;-68
2022/06/26 00:10:30;;;;;;;5.22;3.28;;;13.90;99.90;;;;;;5015121;28;20026;-69
2022/06/26 00:12:57;;;;;;;3.60;2.40;;;14.00;99.90;;;;;;5014616;28;20022;-69
2022/06/26 00:15:25;;;;;;;5.45;2.75;;;14.00;99.90;;;;;;5024685;28;20049;-68
2022/06/26 00:17:52;;;;;;;3.83;2.72;;;14.20;99.90;;;;;;5044151;28;20482;-68
2022/06/26 00:20:20;;;;;;;4.80;2.53;;;14.50;99.90;;;;;;5026353;28;20033;-69
2022/06/26 00:22:48;;;;;;;4.32;2.90;;;14.70;99.90;;;;;;5028114;28;20030;-69
2022/06/26 00:25:15;;;;;;;3.95;2.40;;;14.70;99.90;;;;;;5014571;28;21019;-69
2022/06/26 00:27:43;;;;;;;6.25;2.70;;;14.80;99.90;;;;;;5021730;28;20024;-68
2022/06/26 00:30:10;;;;;;;4.07;2.33;;;14.90;99.90;;;;;;5033365;28;20040;-68
2022/06/26 00:32:38;;;;;;;7.28;3.10;;;14.80;99.90;;;;;;5017859;28;20499;-68
2022/06/26 00:35:06;;;;;;;4.97;2.50;;;14.60;99.90;;;;;;5016916;28;20026;-69
2022/06/26 00:37:33;;;;;;;4.40;2.72;;;14.60;99.90;;;;;;5025054;28;20037;-68
2022/06/26 00:40:01;;;;;;;4.70;2.65;;;14.60;99.90;;;;;;5017862;28;20050;-69
2022/06/26 00:42:28;;;;;;;4.43;2.20;;;14.90;99.90;;;;;;5028519;28;20075;-69
2022/06/26 00:44:56;;;;;;;8.57;2.38;;;15.00;99.90;;;;;;5029709;28;20041;-69
2022/06/26 00:47:26;;;;;;;3.95;2.63;;;15.10;99.90;;;;;;5022622;28;20030;-68
2022/06/26 00:49:53;;;;;;;3.83;1.98;;;15.10;99.90;;;;;;5014479;28;20030;-68
2022/06/26 00:52:22;;;;;;;3.85;2.50;;;15.10;99.90;;;;;;5019710;28;22237;-69
2022/06/26 00:54:51;;;;;;;3.20;2.05;;;15.10;99.90;;;;;;5023663;28;20096;-68
2022/06/26 00:57:19;;;;;;;5.75;2.42;;;15.20;99.90;;;;;;5022692;28;20440;-68
2022/06/26 00:59:48;;;;;;;4.13;1.90;;;15.10;99.90;;;;;;5018847;28;20390;-68
2022/06/26 01:02:16;;;;;;;17.60;3.83;;;15.20;99.90;;;;;;5029670;28;20025;-68
2022/06/26 01:04:43;;;;;;;5.57;2.15;;;15.40;99.90;;;;;;5024168;28;20026;-68
2022/06/26 01:07:11;;;;;;;29.33;7.60;;;15.40;99.90;;;;;;5031798;28;20045;-69
2022/06/26 01:09:38;;;;;;;6.28;2.00;;;15.50;99.90;;;;;;5034048;28;20030;-69
2022/06/26 01:12:07;;;;;;;4.82;1.70;;;15.60;99.90;;;;;;5033325;28;20021;-69
2022/06/26 01:14:34;;;;;;;4.32;2.30;;;15.60;99.90;;;;;;5033997;28;20489;-68
2022/06/26 01:17:02;;;;;;;4.07;2.40;;;15.70;99.90;;;;;;5020306;28;20040;-69
2022/06/26 01:19:30;;;;;;;3.28;1.42;;;15.80;99.90;;;;;;5020496;28;20025;-69
2022/06/26 01:21:57;;;;;;;4.25;2.05;;;15.90;99.90;;;;;;5033149;28;20363;-68
2022/06/26 01:24:25;;;;;;;7.95;1.95;;;16.10;99.90;;;;;;5022882;28;20080;-68
2022/06/26 01:26:52;;;;;;;4.25;1.77;;;16.40;99.90;;;;;;5020812;28;20037;-68
2022/06/26 01:29:21;;;;;;;6.35;1.20;;;16.40;99.90;;;;;;5015226;28;20095;-66
2022/06/26 01:31:49;;;;;;;6.13;1.85;;;16.70;99.90;;;;;;5013962;28;20054;-67
2022/06/26 01:34:16;;;;;;;2.20;1.38;;;16.90;99.90;;;;;;5018487;28;20366;-67
2022/06/26 01:36:43;;;;;;;4.22;1.15;;;16.80;99.90;;;;;;5020641;28;20053;-67
2022/06/26 01:39:11;;;;;;;5.50;1.55;;;16.60;99.90;;;;;;5032361;28;20017;-67
2022/06/26 01:41:38;;;;;;;4.20;1.42;;;16.80;99.90;;;;;;5023794;28;20108;-66
2022/06/26 01:44:09;;;;;;;3.78;1.27;;;16.80;99.90;;;;;;5023398;28;20032;-66
2022/06/26 01:46:36;;;;;;;3.20;1.40;;;16.90;99.90;;;;;;5020379;28;20029;-67
2022/06/26 01:49:04;;;;;;;5.28;1.00;;;16.80;99.90;;;;;;5031165;28;20506;-68
2022/06/26 01:51:31;;;;;;;4.63;1.40;;;16.90;99.90;;;;;;5023139;28;20025;-68
2022/06/26 01:53:58;;;;;;;2.20;0.95;;;16.80;99.90;;;;;;5012463;28;20060;-68
2022/06/26 01:56:26;;;;;;;2.53;1.20;;;16.90;99.90;;;;;;5012821;28;20057;-68
2022/06/26 01:58:53;;;;;;;2.08;0.95;;;17.00;99.90;;;;;;5027320;28;20030;-68
2022/06/26 02:01:20;;;;;;;3.45;0.82;;;16.90;99.90;;;;;;5030142;28;20060;-68
2022/06/26 02:03:48;;;;;;;3.92;1.80;;;17.00;99.90;;;;;;5032966;28;20064;-68
2022/06/26 02:06:15;;;;;;;2.72;1.42;;;17.10;99.90;;;;;;5019094;28;20034;-68
2022/06/26 02:08:42;;;;;;;3.97;1.60;;;17.10;99.90;;;;;;5014628;28;20022;-68
2022/06/26 02:13:55;;;;;;;2.88;1.15;;;17.20;99.90;;;;;;5013197;28;20141;-68
2022/06/26 02:16:26;;;;;;;2.35;1.05;;;17.20;99.90;;;;;;5022656;28;20091;-69
2022/06/26 02:18:57;;;;;;;3.53;1.60;;;17.30;99.90;;;;;;5032466;28;20130;-69
2022/06/26 02:21:28;;;;;;;3.05;1.08;;;17.40;99.90;;;;;;5022330;28;20032;-68
2022/06/26 02:23:56;;;;;;;2.67;1.10;;;17.40;99.90;;;;;;5031545;28;20509;-68
2022/06/26 02:26:24;;;;;;;5.55;1.58;;;17.40;99.90;;;;;;5031737;28;20452;-68
2022/06/26 02:28:51;;;;;;;3.33;0.88;;;17.50;99.90;;;;;;5032399;28;20113;-69
2022/06/26 02:31:19;;;;;;;2.50;1.20;;;17.40;99.90;;;;;;5014394;28;20036;-68
2022/06/26 02:33:46;;;;;;;3.42;1.30;;;17.50;99.90;;;;;;5027407;28;20126;-69
2022/06/26 02:36:13;;;;;;;3.22;1.50;;;17.70;99.90;;;;;;5011968;28;20557;-68
2022/06/26 02:38:41;;;;;;;4.35;2.55;;;17.70;99.90;;;;;;5014839;28;20028;-69
2022/06/26 02:41:08;;;;;;;4.57;1.40;;;17.70;99.90;;;;;;5012190;28;20368;-68
2022/06/26 02:43:36;;;;;;;2.95;1.00;;;17.70;99.90;;;;;;5012182;28;20029;-68
2022/06/26 02:46:03;;;;;;;3.13;1.00;;;17.80;99.90;;;;;;5012468;28;20038;-68
2022/06/26 02:48:30;;;;;;;4.05;1.40;;;17.90;99.90;;;;;;5012625;28;20118;-68
2022/06/26 02:50:58;;;;;;;2.88;1.38;;;17.90;99.90;;;;;;5012240;28;20025;-69
2022/06/26 02:53:25;;;;;;;2.72;1.13;;;18.00;99.90;;;;;;5016347;28;20021;-69
2022/06/26 02:55:52;;;;;;;3.40;1.05;;;18.10;99.90;;;;;;5024902;28;20049;-69
2022/06/26 02:58:20;;;;;;;2.70;0.70;;;18.00;99.90;;;;;;5018459;28;20064;-69
2022/06/26 03:00:47;;;;;;;2.08;0.70;;;18.00;99.90;;;;;;5016676;28;20057;-69
2022/06/26 03:03:14;;;;;;;3.28;1.23;;;18.30;99.90;;;;;;5015706;28;20550;-69
2022/06/26 03:05:42;;;;;;;2.03;0.80;;;18.60;99.90;;;;;;5022629;28;20079;-70
2022/06/26 03:08:09;;;;;;;1.70;0.90;;;18.50;99.90;;;;;;5015958;28;20026;-69
2022/06/26 03:10:37;;;;;;;3.53;0.90;;;18.80;99.90;;;;;;5019309;28;20497;-70
2022/06/26 03:13:04;;;;;;;4.65;2.25;;;18.80;99.90;;;;;;5036022;28;20063;-69
2022/06/26 03:15:33;;;;;;;2.10;0.80;;;18.80;99.90;;;;;;5032235;28;20022;-69
2022/06/26 03:18:03;;;;;;;2.03;0.70;;;18.60;99.90;;;;;;5016211;28;20482;-68
2022/06/26 03:20:31;;;;;;;5.00;1.00;;;18.90;99.90;;;;;;5017665;28;20041;-69
2022/06/26 03:22:58;;;;;;;2.90;0.60;;;19.30;99.90;;;;;;5035001;28;20033;-69
2022/06/26 03:25:26;;;;;;;2.35;0.88;;;18.90;99.90;;;;;;5029868;28;20486;-68
2022/06/26 03:27:53;;;;;;;5.40;0.90;;;18.70;99.90;;;;;;5035536;28;20025;-68
2022/06/26 03:30:21;;;;;;;3.25;1.05;;;18.70;99.90;;;;;;5034219;28;20022;-69
2022/06/26 03:32:48;;;;;;;4.32;0.85;;;19.40;99.90;;;;;;5022795;28;20030;-68
2022/06/26 03:35:15;;;;;;;3.35;0.70;;;19.20;99.90;;;;;;5016277;28;20101;-69
2022/06/26 03:37:43;;;;;;;2.38;0.98;;;19.30;99.90;;;;;;5035669;28;20108;-69
2022/06/26 03:40:11;;;;;;;3.65;1.38;;;19.20;99.90;;;;;;5033718;28;20026;-68
2022/06/26 03:42:39;;;;;;;2.85;1.15;;;18.90;99.90;;;;;;5029529;28;20022;-69
2022/06/26 03:45:07;;;;;;;1.33;0.90;;;19.20;99.90;;;;;;5015742;28;20471;-68
2022/06/26 03:47:34;;;;;;;2.15;0.80;;;19.10;99.90;;;;;;5014110;28;20034;-68
2022/06/26 03:50:02;;;;;;;3.97;0.85;;;19.70;99.90;;;;;;5015002;28;20109;-68
2022/06/26 03:52:29;;;;;;;4.18;0.77;;;19.80;99.90;;;;;;5027187;28;20036;-68
2022/06/26 03:54:56;;;;;;;1.60;0.77;;;19.30;99.90;;;;;;5034051;28;20513;-68
2022/06/26 03:57:23;;;;;;;4.50;0.90;;;19.30;99.90;;;;;;5018251;28;20030;-68
2022/06/26 03:59:51;;;;;;;4.90;0.95;;;18.80;99.90;;;;;;5014999;28;20118;-68
2022/06/26 04:02:19;;;;;;;2.38;0.80;;;18.80;99.90;;;;;;5016349;28;20032;-68
2022/06/26 04:04:46;;;;;;;3.08;0.93;;;18.70;99.90;;;;;;5014939;28;20056;-68
2022/06/26 04:07:13;;;;;;;3.65;1.75;;;18.70;99.90;;;;;;5015621;28;20053;-68
2022/06/26 04:09:41;;;;;;;2.95;1.25;;;18.50;99.90;;;;;;5014541;28;20022;-68
2022/06/26 04:12:08;;;;;;;1.92;1.20;;;18.50;99.90;;;;;;5014993;28;20109;-68
2022/06/26 04:14:36;;;;;;;5.28;1.08;;;18.50;99.90;;;;;;5014843;28;20045;-68
2022/06/26 04:17:04;;;;;;;3.10;1.10;;;18.50;99.90;;;;;;5017956;28;20128;-68
2022/06/26 04:19:31;;;;;;;3.72;1.08;;;18.50;99.90;;;;;;5015560;28;20112;-68
2022/06/26 04:21:58;;;;;;;2.38;0.60;;;18.60;99.90;;;;;;5013689;28;20034;-67
2022/06/26 04:24:26;;;;;;;1.90;0.63;;;18.60;99.90;;;;;;5014817;28;20163;-68
2022/06/26 04:26:53;;;;;;;2.20;0.90;;;18.60;99.90;;;;;;5019648;28;20049;-68
2022/06/26 04:29:20;;;;;;;1.90;0.80;;;18.70;99.90;;;;;;5028127;28;20025;-68
2022/06/26 04:31:48;;;;;;;2.38;0.85;;;18.50;99.90;;;;;;5029154;28;20359;-68
2022/06/26 04:34:15;;;;;;;2.55;0.95;;;18.60;99.90;;;;;;5034702;28;20033;-68
2022/06/26 04:36:43;;;;;;;4.97;0.80;;;18.60;99.90;;;;;;5020292;28;20034;-68
2022/06/26 04:39:10;;;;;;;4.00;1.10;;;18.60;99.90;;;;;;5021184;28;20394;-68
2022/06/26 04:41:39;;;;;;;7.13;1.55;;;18.50;99.90;;;;;;5032355;28;20025;-68
2022/06/26 04:44:08;;;;;;;2.15;1.10;;;18.50;99.90;;;;;;5016621;28;20033;-68
2022/06/26 04:46:37;;;;;;;3.70;1.20;;;18.50;99.90;;;;;;5015067;28;20029;-68
2022/06/26 04:49:05;;;;;;;2.88;1.10;;;18.40;99.90;;;;;;5014695;28;20052;-68
2022/06/26 04:51:35;;;;;;;3.63;1.35;;;18.50;99.90;;;;;;5015999;28;20113;-68
2022/06/26 04:54:04;;;;;;;3.13;1.13;;;18.50;99.90;;;;;;5029259;28;20114;-68
2022/06/26 04:56:32;;;;;;;3.38;1.15;;;18.60;99.90;;;;;;5016985;28;20041;-68
2022/06/26 04:58:59;;;;;;;3.28;1.15;;;18.50;99.90;;;;;;5013499;28;20034;-69
2022/06/26 05:01:28;;;;;;;3.70;1.40;;;18.30;99.90;;;;;;5024307;28;20033;-69
2022/06/26 05:03:56;;;;;;;3.92;1.15;;;18.20;99.90;;;;;;5017778;28;20083;-68
2022/06/26 05:06:23;;;;;;;2.70;1.20;;;18.00;99.90;;;;;;5013981;28;20083;-68
2022/06/26 05:08:51;;;;;;;4.25;1.23;;;18.10;99.90;;;;;;5013994;28;20034;-69
2022/06/26 05:11:21;;;;;;;3.60;1.50;;;17.90;99.90;;;;;;5014369;28;20030;-68
2022/06/26 05:13:49;;;;;;;1.58;0.77;;;17.80;99.90;;;;;;5026963;28;20041;-68
2022/06/26 05:16:16;;;;;;;2.47;0.90;;;17.70;99.90;;;;;;5014863;28;20430;-69
2022/06/26 05:18:43;;;;;;;5.63;2.83;;;17.60;99.90;;;;;;5026025;28;20034;-68
2022/06/26 05:21:11;;;;;;;4.30;1.60;;;17.60;99.90;;;;;;5016132;28;20026;-68
2022/06/26 05:23:38;;;;;;;3.47;1.38;;;17.50;99.90;;;;;;5027228;28;20030;-68
2022/06/26 05:26:06;;;;;;;6.55;1.60;;;17.50;99.90;;;;;;5023634;28;20025;-68
2022/06/26 05:28:34;;;;;;;4.78;0.95;;;17.50;99.90;;;;;;5014057;28;20017;-68
2022/06/26 05:31:01;;;;;;;2.45;1.45;;;17.60;99.90;;;;;;5013529;28;20083;-69
2022/06/26 05:33:28;;;;;;;2.45;0.90;;;17.60;99.90;;;;;;5020717;28;20029;-68
2022/06/26 05:35:56;;;;;;;5.65;1.52;;;17.60;99.90;;;;;;5019679;28;20030;-69
2022/06/26 05:38:23;;;;;;;5.70;2.75;;;17.50;99.90;;;;;;5033239;28;20029;-68
2022/06/26 05:40:50;;;;;;;4.07;1.92;;;17.50;99.90;;;;;;5021517;28;20030;-68
2022/06/26 05:43:18;;;;;;;4.38;1.45;;;17.40;99.90;;;;;;5013546;28;20021;-68
2022/06/26 05:45:45;;;;;;;1.63;0.73;;;17.40;99.90;;;;;;5017675;28;20025;-68
2022/06/26 05:48:12;;;;;;;2.63;1.58;;;17.40;99.90;;;;;;5033044;28;20521;-68
2022/06/26 05:50:40;;;;;;;5.05;1.83;;;17.30;99.90;;;;;;5029418;28;20031;-68
2022/06/26 05:53:07;;;;;;;2.20;1.30;;;17.30;99.90;;;;;;5020848;28;20025;-68
2022/06/26 05:55:34;;;;;;;3.28;1.08;;;17.20;99.90;;;;;;5013119;28;20510;-68
2022/06/26 05:58:03;;;;;;;3.17;1.42;;;17.20;99.90;;;;;;5011893;28;20026;-68
2022/06/26 06:00:30;;;;;;;5.95;1.60;;;17.10;99.90;;;;;;5012920;28;20041;-69
2022/06/26 06:02:57;;;;;;;5.03;1.42;;;16.90;99.90;;;;;;5012854;28;20113;-68
2022/06/26 06:05:28;;;;;;;2.15;1.10;;;16.80;99.90;;;;;;5012616;28;20105;-68
2022/06/26 06:07:56;;;;;;;5.40;2.33;;;16.70;99.90;;;;;;5012889;28;20433;-68
2022/06/26 06:10:25;;;;;;;3.83;1.52;;;16.60;99.90;;;;;;5014859;28;20075;-68
2022/06/26 06:12:53;;;;;;;3.25;1.75;;;16.50;99.90;;;;;;5030632;28;20030;-69
2022/06/26 06:15:21;;;;;;;4.30;1.70;;;16.40;99.90;;;;;;5017793;28;20116;-68
2022/06/26 06:17:49;;;;;;;3.90;1.73;;;16.40;99.90;;;;;;5021242;28;20083;-68
2022/06/26 06:20:19;;;;;;;4.07;2.03;;;16.30;99.90;;;;;;5030923;28;20125;-68
2022/06/26 06:23:00;;;;;;;5.47;2.00;;;16.20;99.90;;;;;;5027517;28;20060;-68
2022/06/26 06:25:30;;;;;;;4.85;2.30;;;16.20;99.90;;;;;;5012672;28;20056;-68
2022/06/26 06:27:58;;;;;;;3.67;2.28;;;16.00;99.90;;;;;;5026709;28;20025;-68
2022/06/26 06:30:25;;;;;;;4.05;2.50;;;16.00;99.90;;;;;;5029268;28;20104;-68
2022/06/26 06:32:54;;;;;;;6.30;2.97;;;16.00;99.90;;;;;;5012795;28;20026;-68
2022/06/26 06:35:22;;;;;;;3.33;2.30;;;15.90;99.90;;;;;;5013182;28;20590;-68
2022/06/26 06:37:50;;;;;;;3.90;1.90;;;15.80;99.90;;;;;;5011870;28;20057;-68
2022/06/26 06:40:17;;;;;;;5.05;1.38;;;15.80;99.90;;;;;;5012434;28;20042;-68
2022/06/26 06:42:44;;;;;;;4.80;1.55;;;15.70;99.90;;;;;;5015421;28;20426;-68
2022/06/26 06:45:12;;;;;;;3.97;1.17;;;15.60;99.90;;;;;;5023547;28;20029;-68
2022/06/26 06:47:39;;;;;;;3.03;1.35;;;15.60;99.90;;;;;;5015271;28;20026;-68
2022/06/26 06:50:07;;;;;;;3.28;1.33;;;15.60;99.90;;;;;;5025758;28;20504;-68
2022/06/26 06:52:35;;;;;;;5.00;1.48;;;15.50;99.90;;;;;;5019422;28;20025;-69
2022/06/26 06:55:03;;;;;;;6.47;1.20;;;15.40;99.90;;;;;;5018872;28;20565;-68
2022/06/26 06:57:31;;;;;;;5.85;1.58;;;15.40;99.90;;;;;;5018043;28;20592;-69
2022/06/26 06:59:58;;;;;;;6.63;1.77;;;15.30;99.90;;;;;;5026092;28;20104;-70
2022/06/26 07:02:26;;;;;;;6.97;2.72;;;15.30;99.90;;;;;;5024233;28;20022;-70
2022/06/26 07:04:53;;;;;;;3.72;2.45;;;15.10;99.90;;;;;;5030617;28;20082;-70
2022/06/26 07:07:20;;;;;;;5.63;2.83;;;15.10;99.90;;;;;;5025435;28;20041;-71
2022/06/26 07:09:48;;;;;;;5.03;2.63;;;15.10;99.90;;;;;;5030183;28;20017;-70
2022/06/26 07:12:15;;;;;;;3.45;2.53;;;15.00;99.90;;;;;;5024392;28;20033;-70
2022/06/26 07:14:42;;;;;;;3.08;1.88;;;15.00;99.90;;;;;;5018483;28;20060;-70
2022/06/26 07:17:09;;;;;;;9.10;6.78;;;15.00;99.90;;;;;;5029797;28;20033;-69
2022/06/26 07:19:36;;;;;;;14.52;10.27;;;15.00;99.90;;;;;;5043805;28;20025;-69
2022/06/26 07:22:04;;;;;;;12.18;10.05;;;14.90;99.90;;;;;;5018464;28;20123;-69
2022/06/26 07:24:32;;;;;;;11.75;9.73;;;14.80;99.90;;;;;;5026982;28;20505;-69
2022/06/26 07:26:59;;;;;;;9.77;7.47;;;14.80;99.90;;;;;;5031857;28;20026;-68
2022/06/26 07:29:26;;;;;;;11.88;8.35;;;14.90;99.90;;;;;;5021906;28;20490;-69
2022/06/26 07:31:54;;;;;;;7.50;6.38;;;14.80;99.90;;;;;;5031399;28;20088;-69
2022/06/26 07:34:23;;;;;;;9.20;5.40;;;14.80;99.90;;;;;;5044773;28;20035;-69
2022/06/26 07:36:52;;;;;;;6.05;4.20;;;14.80;99.90;;;;;;5034183;28;20100;-69
2022/06/26 07:39:21;;;;;;;5.13;3.22;;;14.80;99.90;;;;;;5014180;28;20026;-70
2022/06/26 07:41:50;;;;;;;6.32;2.38;;;14.80;99.90;;;;;;5026497;28;20048;-70
2022/06/26 07:44:17;;;;;;;3.85;2.20;;;14.80;99.90;;;;;;5041335;28;20022;-70
2022/06/26 07:46:45;;;;;;;3.67;2.50;;;14.80;99.90;;;;;;5031448;28;20581;-70
2022/06/26 07:49:12;;;;;;;3.95;1.63;;;14.80;99.90;;;;;;5028788;28;20075;-70
2022/06/26 07:51:39;;;;;;;2.83;1.23;;;14.80;99.90;;;;;;5035400;28;20559;-70
2022/06/26 07:54:07;;;;;;;2.95;1.30;;;14.80;99.90;;;;;;5031269;28;20033;-70
2022/06/26 07:56:34;;;;;;;2.33;0.90;;;14.80;99.90;;;;;;5034897;28;20123;-70
2022/06/26 07:59:02;;;;;;;2.13;0.80;;;14.80;99.90;;;;;;5021380;28;20017;-70
2022/06/26 08:01:32;;;;;;;3.13;0.80;;;14.80;99.90;;;;;;5031572;28;20046;-68
2022/06/26 08:04:00;;;;;;;2.58;0.90;;;14.80;99.90;;;;;;5035902;28;20581;-68
2022/06/26 08:06:27;;;;;;;3.65;0.90;;;14.80;99.90;;;;;;5024719;28;20029;-69
2022/06/26 08:08:56;;;;;;;2.60;0.90;;;14.70;99.90;;;;;;5033792;28;20037;-69
2022/06/26 08:11:24;;;;;;;3.33;1.40;;;14.70;99.90;;;;;;5033391;28;20021;-68
2022/06/26 08:13:51;;;;;;;32.03;22.25;;;14.70;99.90;;;;;;5032379;28;20029;-68
2022/06/26 08:16:19;;;;;;;31.88;22.88;;;14.70;99.90;;;;;;5031455;28;20386;-68
2022/06/26 08:18:47;;;;;;;18.52;12.88;;;14.70;99.90;;;;;;5041507;28;20371;-69
2022/06/26 08:23:59;;;;;;;12.38;8.77;;;14.60;99.90;;;;;;5044539;28;20056;-69
2022/06/26 08:26:26;;;;;;;11.73;8.18;;;14.60;99.90;;;;;;5035041;28;20029;-69
2022/06/26 08:28:54;;;;;;;8.10;5.43;;;14.60;99.90;;;;;;5027879;28;20112;-69
2022/06/26 08:31:21;;;;;;;8.65;5.22;;;14.60;99.90;;;;;;5015540;28;20029;-68
2022/06/26 08:33:48;;;;;;;7.60;4.90;;;14.60;99.90;;;;;;5025508;28;20057;-69
2022/06/26 08:36:15;;;;;;;8.80;4.72;;;14.60;99.90;;;;;;5034225;28;20040;-69
2022/06/26 08:38:43;;;;;;;6.38;4.05;;;14.60;99.90;;;;;;5031250;28;20033;-69
2022/06/26 08:41:13;;;;;;;10.80;3.60;;;14.70;99.90;;;;;;5028710;28;20029;-69
2022/06/26 08:43:41;;;;;;;8.02;3.80;;;14.70;99.90;;;;;;5033714;28;20025;-70
2022/06/26 08:46:09;;;;;;;10.25;5.38;;;14.90;99.90;;;;;;5033330;28;20065;-69
2022/06/26 08:48:44;;;;;;;10.07;6.45;;;14.90;99.90;;;;;;5021819;28;20057;-69
2022/06/26 08:51:12;;;;;;;10.55;5.68;;;15.00;99.90;;;;;;5027304;28;20109;-69
2022/06/26 08:53:41;;;;;;;8.98;5.55;;;14.90;99.90;;;;;;5033984;28;20025;-69
2022/06/26 08:56:08;;;;;;;11.05;5.07;;;14.90;99.90;;;;;;5031378;28;20090;-69
2022/06/26 08:58:36;;;;;;;11.65;5.50;;;14.90;99.90;;;;;;5045884;28;20036;-69
2022/06/26 09:01:07;;;;;;;8.88;5.68;;;14.80;99.90;;;;;;5020836;28;20101;-69
2022/06/26 09:03:35;;;;;;;11.55;5.13;;;14.80;99.90;;;;;;5033873;28;20475;-69
2022/06/26 09:06:05;;;;;;;8.90;5.15;;;14.70;99.90;;;;;;5032674;28;20017;-69
2022/06/26 09:08:43;;;;;;;8.13;4.50;;;14.60;99.90;;;;;;5028467;28;20361;-69
2022/06/26 09:11:12;;;;;;;9.90;4.97;;;14.50;99.90;;;;;;5030454;28;20032;-69
2022/06/26 09:13:41;;;;;;;8.93;4.45;;;14.40;99.90;;;;;;5041229;28;20029;-69
2022/06/26 09:16:09;;;;;;;9.30;5.18;;;14.40;99.90;;;;;;5036504;28;20484;-69
2022/06/26 09:18:39;;;;;;;10.80;5.10;;;14.30;99.90;;;;;;5042086;28;20032;-69
2022/06/26 09:21:08;;;;;;;11.35;7.57;;;14.30;99.90;;;;;;5033220;28;20428;-69
2022/06/26 09:23:38;;;;;;;19.60;14.43;;;14.20;99.90;;;;;;5028683;28;20029;-69
2022/06/26 09:26:06;;;;;;;19.20;13.57;;;14.10;99.90;;;;;;5033447;28;20025;-68
2022/06/26 09:28:34;;;;;;;16.02;12.25;;;14.10;99.90;;;;;;5033749;28;20018;-68
2022/06/26 09:31:03;;;;;;;19.05;13.63;;;14.10;99.90;;;;;;5033369;28;20037;-68
2022/06/26 09:33:35;;;;;;;15.80;11.07;;;14.10;99.90;;;;;;5049344;28;20025;-69
2022/06/26 09:36:05;;;;;;;15.88;8.13;;;14.10;99.90;;;;;;5053448;28;20075;-70
2022/06/26 09:38:37;;;;;;;18.58;9.25;;;14.10;99.90;;;;;;5022099;28;20079;-69
2022/06/26 09:41:07;;;;;;;8.27;5.22;;;14.20;99.90;;;;;;5021920;28;20032;-68
2022/06/26 09:43:41;;;;;;;9.40;5.72;;;14.30;99.90;;;;;;5031650;28;20022;-68
2022/06/26 09:46:10;;;;;;;10.40;4.70;;;14.30;99.90;;;;;;5029933;28;20021;-68
2022/06/26 09:48:40;;;;;;;10.88;4.97;;;14.40;99.90;;;;;;5031528;28;20097;-68
2022/06/26 09:51:13;;;;;;;6.10;4.38;;;14.50;99.90;;;;;;5027199;28;20018;-68
2022/06/26 09:53:41;;;;;;;6.13;4.13;;;14.50;99.90;;;;;;5014609;28;20045;-68
2022/06/26 09:56:09;;;;;;;7.28;4.18;;;14.50;99.90;;;;;;5034832;28;20048;-68
2022/06/26 09:58:36;;;;;;;8.23;4.53;;;14.50;99.90;;;;;;5024259;28;20452;-68
2022/06/26 10:06:36;;;;;;;9.73;4.75;;;14.60;99.90;;;;;;5034499;28;20508;-68
2022/06/26 10:09:09;;;;;;;10.90;4.80;;;14.70;99.90;;;;;;5044782;28;20037;-69
2022/06/26 10:11:42;;;;;;;6.15;3.90;;;14.90;99.90;;;;;;5013001;28;20028;-69
2022/06/26 10:14:22;;;;;;;9.70;5.20;;;15.00;99.90;;;;;;5019694;28;20025;-69
2022/06/26 10:17:04;;;;;;;6.45;4.97;;;15.10;99.90;;;;;;5029051;28;20097;-68
2022/06/26 10:20:03;;;;;;;11.38;6.55;;;15.00;99.90;;;;;;5035402;28;20029;-68
2022/06/26 10:22:41;;;;;;;15.30;7.07;;;15.00;99.90;;;;;;5030664;28;20175;-68
2022/06/26 10:25:21;;;;;;;11.40;6.40;;;14.90;99.90;;;;;;5030600;28;20022;-69
2022/06/26 10:27:48;;;;;;;13.70;5.95;;;14.70;99.90;;;;;;5032250;28;20013;-69
2022/06/26 10:30:21;;;;;;;13.55;6.68;;;14.50;99.90;;;;;;5026742;28;20498;-69
2022/06/26 10:33:07;;;;;;;13.93;7.90;;;14.40;99.90;;;;;;5044575;28;20021;-69
2022/06/26 10:35:51;;;;;;;11.45;7.60;;;14.20;99.90;;;;;;5048557;28;20401;-69
2022/06/26 10:38:24;;;;;;;13.15;7.15;;;14.20;99.90;;;;;;5024354;28;20021;-69
2022/06/26 10:44:10;;;;;;;12.38;6.97;;;14.20;99.90;;;;;;5031514;28;20040;-69
2022/06/26 10:46:58;;;;;;;12.23;7.95;;;14.10;99.90;;;;;;5020056;28;20052;-69
2022/06/26 10:49:25;;;;;;;11.55;7.70;;;14.00;99.90;;;;;;5028549;28;20389;-69
2022/06/26 10:51:53;;;;;;;14.68;7.60;;;13.90;99.90;;;;;;5030429;28;20034;-69
2022/06/26 10:54:22;;;;;;;15.00;7.72;;;13.80;99.90;;;;;;5032077;28;20036;-69
2022/06/26 10:57:14;;;;;;;11.55;6.97;;;13.80;99.90;;;;;;5023523;28;20054;-69
2022/06/26 10:59:42;;;;;;;11.85;6.65;;;13.80;99.90;;;;;;5022962;28;20029;-69
2022/06/26 11:02:13;;;;;;;11.07;6.72;;;13.90;99.90;;;;;;5031326;28;20116;-69
2022/06/26 11:04:50;;;;;;;10.88;6.32;;;13.90;99.90;;;;;;5037937;28;20513;-69
2022/06/26 11:07:19;;;;;;;10.82;5.57;;;13.90;99.90;;;;;;5021101;28;20025;-69
2022/06/26 11:09:47;;;;;;;8.20;5.22;;;14.00;99.90;;;;;;5048752;28;20033;-69
2022/06/26 11:12:14;;;;;;;7.57;4.75;;;14.10;99.90;;;;;;5032360;28;20026;-69
2022/06/26 11:14:41;;;;;;;10.13;5.25;;;14.20;99.90;;;;;;5030031;28;20060;-69
2022/06/26 11:20:49;;;;;;;8.38;5.00;;;14.10;99.90;;;;;;5033044;28;20048;-69
2022/06/26 11:23:38;;;;;;;9.05;6.47;;;14.10;99.90;;;;;;5034545;28;20064;-69
2022/06/26 11:26:08;;;;;;;9.50;5.80;;;14.10;99.90;;;;;;5027541;28;20060;-69
2022/06/26 11:28:44;;;;;;;14.30;6.15;;;14.00;99.90;;;;;;5033929;28;20037;-70
2022/06/26 11:31:21;;;;;;;10.32;6.63;;;14.00;99.90;;;;;;5022619;28;20483;-70
2022/06/26 11:33:49;;;;;;;9.55;7.07;;;13.90;99.90;;;;;;5023377;28;20423;-69
2022/06/26 11:36:18;;;;;;;13.82;7.38;;;13.90;99.90;;;;;;5027062;28;20042;-70
2022/06/26 11:38:54;;;;;;;10.80;6.97;;;13.80;99.90;;;;;;5030393;28;20045;-69
2022/06/26 11:41:25;;;;;;;14.23;7.15;;;13.80;99.90;;;;;;5035414;28;20474;-70
2022/06/26 11:43:55;;;;;;;13.00;7.57;;;13.80;99.90;;;;;;5028616;28;20084;-68
2022/06/26 11:49:26;;;;;;;11.40;6.72;;;13.80;99.90;;;;;;5025489;28;20029;-69
2022/06/26 11:51:58;;;;;;;10.93;7.10;;;13.70;99.90;;;;;;5029889;28;20100;-69
2022/06/26 11:54:25;;;;;;;10.07;6.55;;;13.80;99.90;;;;;;5031432;28;20017;-69
2022/06/26 11:56:53;;;;;;;11.27;6.35;;;13.70;99.90;;;;;;5030485;28;20119;-69
2022/06/26 11:59:20;;;;;;;15.45;8.20;;;13.80;99.90;;;;;;5034224;28;20083;-69
2022/06/26 12:01:47;;;;;;;11.45;8.02;;;13.80;99.90;;;;;;5042031;28;20040;-69
2022/06/26 12:04:18;;;;;;;10.98;7.35;;;13.80;99.90;;;;;;5030852;28;20033;-69
2022/06/26 12:06:52;;;;;;;16.10;8.05;;;13.60;99.90;;;;;;5030065;28;20022;-70
2022/06/26 12:09:28;;;;;;;12.63;7.95;;;13.70;99.90;;;;;;5047609;28;20029;-69
2022/06/26 12:11:56;;;;;;;15.15;8.50;;;13.60;99.90;;;;;;5032051;28;20024;-70
2022/06/26 12:14:28;;;;;;;11.15;7.30;;;13.60;99.90;;;;;;5035096;28;20085;-70
2022/06/26 12:16:57;;;;;;;13.68;7.97;;;13.60;99.90;;;;;;5041664;28;20563;-70
2022/06/26 12:19:26;;;;;;;15.55;8.68;;;13.50;99.90;;;;;;5036175;28;20025;-70
2022/06/26 12:21:56;;;;;;;14.90;8.30;;;13.40;99.90;;;;;;5018421;28;20030;-70
2022/06/26 12:24:23;;;;;;;14.77;8.75;;;13.40;99.90;;;;;;5025577;28;20452;-70
2022/06/26 12:26:52;;;;;;;14.70;7.13;;;13.40;99.90;;;;;;5016777;28;20037;-70
2022/06/26 12:29:21;;;;;;;14.65;7.68;;;13.40;99.90;;;;;;5026510;28;20021;-71
2022/06/26 12:31:49;;;;;;;13.73;7.93;;;13.30;99.90;;;;;;5025819;28;20104;-68
2022/06/26 12:34:16;;;;;;;10.50;6.35;;;13.30;99.90;;;;;;5024074;28;20029;-68
2022/06/26 12:36:44;;;;;;;12.57;6.88;;;13.40;99.90;;;;;;5020274;28;20423;-69
2022/06/26 12:39:11;;;;;;;10.93;7.78;;;13.30;99.90;;;;;;5025948;28;20048;-69
2022/06/26 12:41:39;;;;;;;12.93;7.15;;;13.30;99.90;;;;;;5020583;28;20121;-69
2022/06/26 12:44:06;;;;;;;10.10;6.82;;;13.20;99.90;;;;;;5026709;28;20034;-69
2022/06/26 12:46:34;;;;;;;8.43;5.95;;;13.20;99.90;;;;;;5028482;28;20030;-69
2022/06/26 12:49:01;;;;;;;10.85;7.20;;;13.20;99.90;;;;;;5027745;28;20474;-69
2022/06/26 12:51:29;;;;;;;10.82;5.65;;;13.20;99.90;;;;;;5021813;28;22083;-69
2022/06/26 12:53:56;;;;;;;10.05;5.80;;;13.20;99.90;;;;;;5020973;28;20113;-68
2022/06/26 12:56:24;;;;;;;8.57;5.85;;;13.20;99.90;;;;;;5019071;28;20453;-69
2022/06/26 12:58:51;;;;;;;8.00;4.60;;;13.20;99.90;;;;;;5020634;28;20579;-69
2022/06/26 13:01:19;;;;;;;7.07;3.95;;;13.30;99.90;;;;;;5023014;28;20060;-69
2022/06/26 13:03:46;;;;;;;6.50;3.88;;;13.20;99.90;;;;;;5032632;28;20033;-69
2022/06/26 13:06:13;;;;;;;7.43;3.40;;;13.30;99.90;;;;;;5019817;28;20030;-69
2022/06/26 13:08:41;;;;;;;8.52;3.60;;;13.30;99.90;;;;;;5020503;28;22306;-69
2022/06/26 13:11:23;;;;;;;3.95;2.90;;;13.20;99.90;;;;;;5027016;28;20029;-69